sensor_id;sensor_type;location;lat;lon;timestamp;temperature;humidity
21459;DHT22;10891;49.350;19.386;2023-02-01T00:01:13;0.10;1.00
21459;DHT22;10891;49.350;19.386;2023-02-01T00:03:40;0.20;1.00
21459;DHT22;10891;49.350;19.386;2023-02-01T00:06:06;0.20;99.90
21459;DHT22;10891;49.350;19.386;2023-02-01T00:08:33;0.30;1.00
21459;DHT22;10891;49.350;19.386;2023-02-01T00:11:01;0.30;1.00
21459;DHT22;10891;49.350;19.386;2023-02-01T00:13:31;0.30;1.00
21459;DHT22;10891;49.350;19.386;2023-02-01T00:16:06;0.30;1.00
21459;DHT22;10891;49.350;19.386;2023-02-01T00:18:33;0.30;99.90
21459;DHT22;10891;49.350;19.386;2023-02-01T00:21:00;0.40;1.00
21459;DHT22;10891;49.350;19.386;2023-02-01T00:23:27;0.40;1.00
21459;DHT22;10891;49.350;19.386;2023-02-01T00:25:54;0.40;1.00
21459;DHT22;10891;49.350;19.386;2023-02-01T00:28:21;0.30;99.90
21459;DHT22;10891;49.350;19.386;2023-02-01T00:30:57;0.30;1.00
21459;DHT22;10891;49.350;19.386;2023-02-01T00:33:24;0.30;1.00
21459;DHT22;10891;49.350;19.386;2023-02-01T00:35:51;0.30;99.90
21459;DHT22;10891;49.350;19.386;2023-02-01T00:38:22;0.30;99.90
21459;DHT22;10891;49.350;19.386;2023-02-01T00:40:49;0.40;1.00
21459;DHT22;10891;49.350;19.386;2023-02-01T00:43:16;0.40;1.00
21459;DHT22;10891;49.350;19.386;2023-02-01T00:45:42;0.30;1.00
21459;DHT22;10891;49.350;19.386;2023-02-01T00:48:11;0.40;99.90
21459;DHT22;10891;49.350;19.386;2023-02-01T00:50:41;0.30;99.90
21459;DHT22;10891;49.350;19.386;2023-02-01T00:53:08;0.40;1.00
21459;DHT22;10891;49.350;19.386;2023-02-01T00:55:35;0.40;1.00
21459;DHT22;10891;49.350;19.386;2023-02-01T00:58:02;0.40;1.00
21459;DHT22;10891;49.350;19.386;2023-02-01T01:00:31;0.40;99.90
21459;DHT22;10891;49.350;19.386;2023-02-01T01:02:58;0.50;1.00
21459;DHT22;10891;49.350;19.386;2023-02-01T01:05:26;0.40;1.00
21459;DHT22;10891;49.350;19.386;2023-02-01T01:07:53;0.40;1.00
21459;DHT22;10891;49.350;19.386;2023-02-01T01:10:20;0.50;1.00
21459;DHT22;10891;49.350;19.386;2023-02-01T01:12:47;0.50;1.00
21459;DHT22;10891;49.350;19.386;2023-02-01T01:15:14;0.50;1.00
21459;DHT22;10891;49.350;19.386;2023-02-01T01:17:41;0.50;1.00
21459;DHT22;10891;49.350;19.386;2023-02-01T01:20:09;0.50;1.00
21459;DHT22;10891;49.350;19.386;2023-02-01T01:22:37;0.60;1.00
21459;DHT22;10891;49.350;19.386;2023-02-01T01:25:05;0.60;99.90
21459;DHT22;10891;49.350;19.386;2023-02-01T01:27:32;0.60;1.00
21459;DHT22;10891;49.350;19.386;2023-02-01T01:29:59;0.60;90.50
21459;DHT22;10891;49.350;19.386;2023-02-01T01:32:26;0.60;1.00
21459;DHT22;10891;49.350;19.386;2023-02-01T01:34:53;0.60;1.00
21459;DHT22;10891;49.350;19.386;2023-02-01T01:37:19;0.60;1.00
21459;DHT22;10891;49.350;19.386;2023-02-01T01:39:48;0.60;1.00
21459;DHT22;10891;49.350;19.386;2023-02-01T01:42:14;0.70;67.30
21459;DHT22;10891;49.350;19.386;2023-02-01T01:44:59;0.70;1.00
21459;DHT22;10891;49.350;19.386;2023-02-01T01:47:31;0.70;1.00
21459;DHT22;10891;49.350;19.386;2023-02-01T01:50:00;0.70;99.90
21459;DHT22;10891;49.350;19.386;2023-02-01T01:52:27;0.60;1.00
21459;DHT22;10891;49.350;19.386;2023-02-01T01:54:57;0.60;1.00
21459;DHT22;10891;49.350;19.386;2023-02-01T01:57:28;0.60;99.90
21459;DHT22;10891;49.350;19.386;2023-02-01T02:00:02;0.50;99.90
21459;DHT22;10891;49.350;19.386;2023-02-01T02:02:30;0.50;99.90
21459;DHT22;10891;49.350;19.386;2023-02-01T02:04:56;0.50;99.90
21459;DHT22;10891;49.350;19.386;2023-02-01T02:07:26;0.40;1.00
21459;DHT22;10891;49.350;19.386;2023-02-01T02:09:56;0.40;1.00
21459;DHT22;10891;49.350;19.386;2023-02-01T02:12:23;0.30;1.00
21459;DHT22;10891;49.350;19.386;2023-02-01T02:14:50;0.30;1.00
21459;DHT22;10891;49.350;19.386;2023-02-01T02:17:28;0.30;99.90
21459;DHT22;10891;49.350;19.386;2023-02-01T02:23:20;0.30;99.90
21459;DHT22;10891;49.350;19.386;2023-02-01T02:29:25;0.30;99.90
21459;DHT22;10891;49.350;19.386;2023-02-01T02:32:10;0.30;1.00
21459;DHT22;10891;49.350;19.386;2023-02-01T02:34:47;0.30;1.00
21459;DHT22;10891;49.350;19.386;2023-02-01T02:37:26;0.20;58.00
21459;DHT22;10891;49.350;19.386;2023-02-01T02:40:05;0.20;1.00
21459;DHT22;10891;49.350;19.386;2023-02-01T02:42:38;0.30;99.90
21459;DHT22;10891;49.350;19.386;2023-02-01T02:45:28;0.30;99.90
21459;DHT22;10891;49.350;19.386;2023-02-01T02:48:19;0.30;1.00
21459;DHT22;10891;49.350;19.386;2023-02-01T02:50:53;0.30;1.00
21459;DHT22;10891;49.350;19.386;2023-02-01T02:53:42;0.30;1.00
21459;DHT22;10891;49.350;19.386;2023-02-01T02:56:30;0.30;1.00
21459;DHT22;10891;49.350;19.386;2023-02-01T02:59:17;0.30;99.90
21459;DHT22;10891;49.350;19.386;2023-02-01T03:02:07;0.30;99.90
21459;DHT22;10891;49.350;19.386;2023-02-01T03:04:53;0.20;1.00
21459;DHT22;10891;49.350;19.386;2023-02-01T03:07:52;0.20;99.90
21459;DHT22;10891;49.350;19.386;2023-02-01T03:10:26;0.10;99.90
21459;DHT22;10891;49.350;19.386;2023-02-01T03:13:02;0.00;1.00
21459;DHT22;10891;49.350;19.386;2023-02-01T03:15:34;0.00;1.00
21459;DHT22;10891;49.350;19.386;2023-02-01T03:18:05;0.00;1.00
21459;DHT22;10891;49.350;19.386;2023-02-01T03:20:33;0.00;99.90
21459;DHT22;10891;49.350;19.386;2023-02-01T03:23:03;0.10;1.00
21459;DHT22;10891;49.350;19.386;2023-02-01T03:25:33;0.20;1.00
21459;DHT22;10891;49.350;19.386;2023-02-01T03:28:02;0.20;99.90
21459;DHT22;10891;49.350;19.386;2023-02-01T03:30:33;0.30;99.90
21459;DHT22;10891;49.350;19.386;2023-02-01T03:33:04;0.30;99.90
21459;DHT22;10891;49.350;19.386;2023-02-01T03:35:40;0.30;1.00
21459;DHT22;10891;49.350;19.386;2023-02-01T03:38:18;0.40;99.90
21459;DHT22;10891;49.350;19.386;2023-02-01T03:40:52;0.40;99.90
21459;DHT22;10891;49.350;19.386;2023-02-01T03:43:21;0.30;99.90
21459;DHT22;10891;49.350;19.386;2023-02-01T03:45:52;0.40;1.00
21459;DHT22;10891;49.350;19.386;2023-02-01T03:48:20;0.30;1.00
21459;DHT22;10891;49.350;19.386;2023-02-01T03:50:51;0.30;1.00
21459;DHT22;10891;49.350;19.386;2023-02-01T03:53:22;0.30;1.00
21459;DHT22;10891;49.350;19.386;2023-02-01T03:55:50;0.30;99.90
21459;DHT22;10891;49.350;19.386;2023-02-01T03:58:20;0.30;99.90
21459;DHT22;10891;49.350;19.386;2023-02-01T04:00:51;0.40;99.90
21459;DHT22;10891;49.350;19.386;2023-02-01T04:03:19;0.40;1.00
21459;DHT22;10891;49.350;19.386;2023-02-01T04:05:47;0.50;1.00
21459;DHT22;10891;49.350;19.386;2023-02-01T04:08:14;0.40;99.90
21459;DHT22;10891;49.350;19.386;2023-02-01T04:10:43;0.40;1.00
21459;DHT22;10891;49.350;19.386;2023-02-01T04:13:09;0.40;99.90
21459;DHT22;10891;49.350;19.386;2023-02-01T04:15:37;0.40;92.60
21459;DHT22;10891;49.350;19.386;2023-02-01T04:18:04;0.40;10.50
21459;DHT22;10891;49.350;19.386;2023-02-01T04:20:31;0.30;99.90
21459;DHT22;10891;49.350;19.386;2023-02-01T04:22:58;0.30;1.00
21459;DHT22;10891;49.350;19.386;2023-02-01T04:25:28;0.40;1.00
21459;DHT22;10891;49.350;19.386;2023-02-01T04:27:56;0.40;1.00
21459;DHT22;10891;49.350;19.386;2023-02-01T04:30:23;0.50;99.90
21459;DHT22;10891;49.350;19.386;2023-02-01T04:32:50;0.40;1.00
21459;DHT22;10891;49.350;19.386;2023-02-01T04:35:17;0.40;99.90
21459;DHT22;10891;49.350;19.386;2023-02-01T04:37:44;0.40;99.90
21459;DHT22;10891;49.350;19.386;2023-02-01T04:40:11;0.50;1.00
21459;DHT22;10891;49.350;19.386;2023-02-01T04:42:38;0.40;99.90
21459;DHT22;10891;49.350;19.386;2023-02-01T04:45:08;0.50;24.20
21459;DHT22;10891;49.350;19.386;2023-02-01T04:47:35;0.40;1.00
21459;DHT22;10891;49.350;19.386;2023-02-01T04:50:02;0.50;1.00
21459;DHT22;10891;49.350;19.386;2023-02-01T04:52:29;0.50;1.00
21459;DHT22;10891;49.350;19.386;2023-02-01T04:54:56;0.50;1.00
21459;DHT22;10891;49.350;19.386;2023-02-01T04:57:25;0.50;99.90
21459;DHT22;10891;49.350;19.386;2023-02-01T04:59:52;0.50;99.90
21459;DHT22;10891;49.350;19.386;2023-02-01T05:02:20;0.50;99.90
21459;DHT22;10891;49.350;19.386;2023-02-01T05:04:47;0.50;99.90
21459;DHT22;10891;49.350;19.386;2023-02-01T05:07:15;0.50;1.00
21459;DHT22;10891;49.350;19.386;2023-02-01T05:09:42;0.50;1.00
21459;DHT22;10891;49.350;19.386;2023-02-01T05:12:10;0.50;99.90
21459;DHT22;10891;49.350;19.386;2023-02-01T05:14:54;0.40;32.70
21459;DHT22;10891;49.350;19.386;2023-02-01T05:17:22;0.40;1.00
21459;DHT22;10891;49.350;19.386;2023-02-01T05:19:49;0.50;1.00
21459;DHT22;10891;49.350;19.386;2023-02-01T05:22:16;0.40;99.90
21459;DHT22;10891;49.350;19.386;2023-02-01T05:24:43;0.40;99.90
21459;DHT22;10891;49.350;19.386;2023-02-01T05:27:10;0.40;7.70
21459;DHT22;10891;49.350;19.386;2023-02-01T05:29:37;0.40;78.10
21459;DHT22;10891;49.350;19.386;2023-02-01T05:32:04;0.40;1.00
21459;DHT22;10891;49.350;19.386;2023-02-01T05:34:34;0.40;1.00
21459;DHT22;10891;49.350;19.386;2023-02-01T05:37:02;0.40;1.00
21459;DHT22;10891;49.350;19.386;2023-02-01T05:39:29;0.40;99.90
21459;DHT22;10891;49.350;19.386;2023-02-01T05:41:56;0.40;87.80
21459;DHT22;10891;49.350;19.386;2023-02-01T05:44:23;0.40;1.00
21459;DHT22;10891;49.350;19.386;2023-02-01T05:46:50;0.40;1.00
21459;DHT22;10891;49.350;19.386;2023-02-01T05:49:17;0.40;1.00
21459;DHT22;10891;49.350;19.386;2023-02-01T05:51:46;0.40;1.00
21459;DHT22;10891;49.350;19.386;2023-02-01T05:54:13;0.40;1.00
21459;DHT22;10891;49.350;19.386;2023-02-01T05:56:39;0.40;3.30
21459;DHT22;10891;49.350;19.386;2023-02-01T05:59:07;0.30;99.90
21459;DHT22;10891;49.350;19.386;2023-02-01T06:01:34;0.30;99.90
21459;DHT22;10891;49.350;19.386;2023-02-01T06:04:01;0.40;1.00
21459;DHT22;10891;49.350;19.386;2023-02-01T06:06:28;0.40;99.90
21459;DHT22;10891;49.350;19.386;2023-02-01T06:08:56;0.40;57.60
21459;DHT22;10891;49.350;19.386;2023-02-01T06:11:24;0.30;99.90
21459;DHT22;10891;49.350;19.386;2023-02-01T06:13:50;0.30;99.90
21459;DHT22;10891;49.350;19.386;2023-02-01T06:16:18;0.40;23.80
21459;DHT22;10891;49.350;19.386;2023-02-01T06:18:44;0.30;1.00
21459;DHT22;10891;49.350;19.386;2023-02-01T06:21:11;0.40;99.90
21459;DHT22;10891;49.350;19.386;2023-02-01T06:23:40;0.30;1.00
21459;DHT22;10891;49.350;19.386;2023-02-01T06:26:09;0.40;99.90
21459;DHT22;10891;49.350;19.386;2023-02-01T06:28:36;0.30;11.50
21459;DHT22;10891;49.350;19.386;2023-02-01T06:31:05;0.40;99.90
21459;DHT22;10891;49.350;19.386;2023-02-01T06:33:32;0.40;67.00
21459;DHT22;10891;49.350;19.386;2023-02-01T06:36:01;0.40;99.90
21459;DHT22;10891;49.350;19.386;2023-02-01T06:38:29;0.50;99.90
21459;DHT22;10891;49.350;19.386;2023-02-01T06:40:57;0.50;99.90
21459;DHT22;10891;49.350;19.386;2023-02-01T06:43:26;0.50;1.00
21459;DHT22;10891;49.350;19.386;2023-02-01T06:45:58;0.50;1.00
21459;DHT22;10891;49.350;19.386;2023-02-01T06:48:26;0.50;99.90
21459;DHT22;10891;49.350;19.386;2023-02-01T06:50:52;0.60;98.00
21459;DHT22;10891;49.350;19.386;2023-02-01T06:53:19;0.50;1.00
21459;DHT22;10891;49.350;19.386;2023-02-01T06:55:52;0.50;1.00
21459;DHT22;10891;49.350;19.386;2023-02-01T06:58:19;0.50;1.00
21459;DHT22;10891;49.350;19.386;2023-02-01T07:00:48;0.50;1.00
21459;DHT22;10891;49.350;19.386;2023-02-01T07:03:15;0.40;1.00
21459;DHT22;10891;49.350;19.386;2023-02-01T07:05:42;0.40;1.00
21459;DHT22;10891;49.350;19.386;2023-02-01T07:08:09;0.40;1.00
21459;DHT22;10891;49.350;19.386;2023-02-01T07:10:35;0.50;99.90
21459;DHT22;10891;49.350;19.386;2023-02-01T07:13:02;0.60;99.90
21459;DHT22;10891;49.350;19.386;2023-02-01T07:15:29;0.50;1.00
21459;DHT22;10891;49.350;19.386;2023-02-01T07:17:58;0.60;99.90
21459;DHT22;10891;49.350;19.386;2023-02-01T07:20:25;0.60;1.00
21459;DHT22;10891;49.350;19.386;2023-02-01T07:22:55;0.60;1.00
21459;DHT22;10891;49.350;19.386;2023-02-01T07:25:23;0.70;51.80
21459;DHT22;10891;49.350;19.386;2023-02-01T07:27:50;0.70;1.00
21459;DHT22;10891;49.350;19.386;2023-02-01T07:30:17;0.80;1.00
21459;DHT22;10891;49.350;19.386;2023-02-01T07:32:44;0.80;1.00
21459;DHT22;10891;49.350;19.386;2023-02-01T07:35:13;0.90;1.00
21459;DHT22;10891;49.350;19.386;2023-02-01T07:37:40;0.90;1.00
21459;DHT22;10891;49.350;19.386;2023-02-01T07:40:08;0.90;1.00
21459;DHT22;10891;49.350;19.386;2023-02-01T07:42:35;0.90;1.00
21459;DHT22;10891;49.350;19.386;2023-02-01T07:45:03;0.90;1.00
21459;DHT22;10891;49.350;19.386;2023-02-01T07:47:30;0.90;1.00
21459;DHT22;10891;49.350;19.386;2023-02-01T07:49:57;1.00;1.00
21459;DHT22;10891;49.350;19.386;2023-02-01T07:52:27;1.00;1.00
21459;DHT22;10891;49.350;19.386;2023-02-01T07:54:54;1.00;1.00
21459;DHT22;10891;49.350;19.386;2023-02-01T07:57:21;1.20;1.00
21459;DHT22;10891;49.350;19.386;2023-02-01T07:59:48;1.10;1.00
21459;DHT22;10891;49.350;19.386;2023-02-01T08:02:40;1.20;1.00
21459;DHT22;10891;49.350;19.386;2023-02-01T08:05:08;1.30;1.00
21459;DHT22;10891;49.350;19.386;2023-02-01T08:07:36;1.30;1.00
21459;DHT22;10891;49.350;19.386;2023-02-01T08:10:03;1.40;1.00
21459;DHT22;10891;49.350;19.386;2023-02-01T08:12:32;1.40;1.00
21459;DHT22;10891;49.350;19.386;2023-02-01T08:14:59;1.40;1.00
21459;DHT22;10891;49.350;19.386;2023-02-01T08:17:26;1.40;1.00
21459;DHT22;10891;49.350;19.386;2023-02-01T08:19:54;1.50;1.00
21459;DHT22;10891;49.350;19.386;2023-02-01T08:22:21;1.50;1.00
21459;DHT22;10891;49.350;19.386;2023-02-01T08:24:50;1.50;1.00
21459;DHT22;10891;49.350;19.386;2023-02-01T08:27:17;1.40;1.00
21459;DHT22;10891;49.350;19.386;2023-02-01T08:29:44;1.30;1.00
21459;DHT22;10891;49.350;19.386;2023-02-01T08:32:11;1.30;1.00
21459;DHT22;10891;49.350;19.386;2023-02-01T08:34:37;1.30;1.00
21459;DHT22;10891;49.350;19.386;2023-02-01T08:37:04;1.50;1.00
21459;DHT22;10891;49.350;19.386;2023-02-01T08:39:32;1.70;68.60
21459;DHT22;10891;49.350;19.386;2023-02-01T08:42:00;1.80;1.00
21459;DHT22;10891;49.350;19.386;2023-02-01T08:44:45;1.90;1.00
21459;DHT22;10891;49.350;19.386;2023-02-01T08:47:12;2.00;1.00
21459;DHT22;10891;49.350;19.386;2023-02-01T08:49:39;2.00;1.00
21459;DHT22;10891;49.350;19.386;2023-02-01T08:52:06;2.00;1.00
21459;DHT22;10891;49.350;19.386;2023-02-01T08:54:34;2.00;1.00
21459;DHT22;10891;49.350;19.386;2023-02-01T08:57:02;2.10;1.00
21459;DHT22;10891;49.350;19.386;2023-02-01T08:59:29;2.10;1.00
21459;DHT22;10891;49.350;19.386;2023-02-01T09:01:56;2.20;1.00
21459;DHT22;10891;49.350;19.386;2023-02-01T09:04:23;2.40;1.00
21459;DHT22;10891;49.350;19.386;2023-02-01T09:06:50;2.20;99.90
21459;DHT22;10891;49.350;19.386;2023-02-01T09:09:17;2.40;1.00
21459;DHT22;10891;49.350;19.386;2023-02-01T09:11:43;2.40;1.00
21459;DHT22;10891;49.350;19.386;2023-02-01T09:14:12;2.50;1.00
21459;DHT22;10891;49.350;19.386;2023-02-01T09:16:38;2.60;1.00
21459;DHT22;10891;49.350;19.386;2023-02-01T09:19:05;2.60;1.00
21459;DHT22;10891;49.350;19.386;2023-02-01T09:21:32;2.60;1.00
21459;DHT22;10891;49.350;19.386;2023-02-01T09:23:59;2.60;1.00
21459;DHT22;10891;49.350;19.386;2023-02-01T09:26:27;2.60;1.00
21459;DHT22;10891;49.350;19.386;2023-02-01T09:28:54;2.70;1.00
21459;DHT22;10891;49.350;19.386;2023-02-01T09:31:22;2.50;1.00
21459;DHT22;10891;49.350;19.386;2023-02-01T09:33:49;2.60;1.00
21459;DHT22;10891;49.350;19.386;2023-02-01T09:36:16;2.80;1.00
21459;DHT22;10891;49.350;19.386;2023-02-01T09:38:45;2.90;92.10
21459;DHT22;10891;49.350;19.386;2023-02-01T09:41:24;3.00;1.00
21459;DHT22;10891;49.350;19.386;2023-02-01T09:43:56;3.00;1.00
21459;DHT22;10891;49.350;19.386;2023-02-01T09:46:28;2.80;1.00
21459;DHT22;10891;49.350;19.386;2023-02-01T09:48:57;2.70;1.00
21459;DHT22;10891;49.350;19.386;2023-02-01T09:51:30;2.40;1.00
21459;DHT22;10891;49.350;19.386;2023-02-01T09:54:01;2.30;1.00
21459;DHT22;10891;49.350;19.386;2023-02-01T09:56:35;2.40;44.50
21459;DHT22;10891;49.350;19.386;2023-02-01T09:59:09;2.40;99.90
21459;DHT22;10891;49.350;19.386;2023-02-01T10:01:38;2.50;99.90
21459;DHT22;10891;49.350;19.386;2023-02-01T10:04:08;2.50;99.90
21459;DHT22;10891;49.350;19.386;2023-02-01T10:06:47;2.60;1.00
21459;DHT22;10891;49.350;19.386;2023-02-01T10:09:31;2.60;91.60
21459;DHT22;10891;49.350;19.386;2023-02-01T10:12:27;2.70;1.00
21459;DHT22;10891;49.350;19.386;2023-02-01T10:15:05;2.70;99.90
21459;DHT22;10891;49.350;19.386;2023-02-01T10:17:51;2.70;1.00
21459;DHT22;10891;49.350;19.386;2023-02-01T10:20:23;2.70;1.00
21459;DHT22;10891;49.350;19.386;2023-02-01T10:23:01;2.70;1.00
21459;DHT22;10891;49.350;19.386;2023-02-01T10:25:37;2.90;1.00
21459;DHT22;10891;49.350;19.386;2023-02-01T10:28:09;3.00;1.00
21459;DHT22;10891;49.350;19.386;2023-02-01T10:30:42;2.80;1.00
21459;DHT22;10891;49.350;19.386;2023-02-01T10:33:17;3.00;1.00
21459;DHT22;10891;49.350;19.386;2023-02-01T10:35:45;2.90;1.00
21459;DHT22;10891;49.350;19.386;2023-02-01T10:38:17;2.80;43.90
21459;DHT22;10891;49.350;19.386;2023-02-01T10:40:45;2.80;1.00
21459;DHT22;10891;49.350;19.386;2023-02-01T10:43:12;2.70;1.00
21459;DHT22;10891;49.350;19.386;2023-02-01T10:45:40;2.70;99.90
21459;DHT22;10891;49.350;19.386;2023-02-01T10:48:08;2.70;1.00
21459;DHT22;10891;49.350;19.386;2023-02-01T10:50:41;2.60;1.00
21459;DHT22;10891;49.350;19.386;2023-02-01T10:53:15;2.70;99.90
21459;DHT22;10891;49.350;19.386;2023-02-01T10:55:47;2.50;64.20
21459;DHT22;10891;49.350;19.386;2023-02-01T10:58:17;2.60;99.90
21459;DHT22;10891;49.350;19.386;2023-02-01T11:00:47;2.50;1.00
21459;DHT22;10891;49.350;19.386;2023-02-01T11:03:41;2.50;99.90
21459;DHT22;10891;49.350;19.386;2023-02-01T11:06:16;2.50;99.90
21459;DHT22;10891;49.350;19.386;2023-02-01T11:08:47;2.50;1.00
21459;DHT22;10891;49.350;19.386;2023-02-01T11:11:14;2.60;99.90
21459;DHT22;10891;49.350;19.386;2023-02-01T11:13:41;2.60;1.00
21459;DHT22;10891;49.350;19.386;2023-02-01T11:16:12;2.70;99.90
21459;DHT22;10891;49.350;19.386;2023-02-01T11:18:40;2.60;99.90
21459;DHT22;10891;49.350;19.386;2023-02-01T11:21:10;2.80;99.90
21459;DHT22;10891;49.350;19.386;2023-02-01T11:23:42;2.90;1.00
21459;DHT22;10891;49.350;19.386;2023-02-01T11:26:12;3.30;99.90
21459;DHT22;10891;49.350;19.386;2023-02-01T11:28:56;3.40;1.00
21459;DHT22;10891;49.350;19.386;2023-02-01T11:31:25;3.70;99.90
21459;DHT22;10891;49.350;19.386;2023-02-01T11:33:55;3.70;1.00
21459;DHT22;10891;49.350;19.386;2023-02-01T11:36:28;3.70;1.00
21459;DHT22;10891;49.350;19.386;2023-02-01T11:39:16;3.90;1.00
21459;DHT22;10891;49.350;19.386;2023-02-01T11:41:56;3.90;1.00
21459;DHT22;10891;49.350;19.386;2023-02-01T11:44:32;4.00;1.00
21459;DHT22;10891;49.350;19.386;2023-02-01T11:47:21;4.10;1.00
21459;DHT22;10891;49.350;19.386;2023-02-01T11:49:50;4.50;1.00
21459;DHT22;10891;49.350;19.386;2023-02-01T11:52:29;4.40;99.90
21459;DHT22;10891;49.350;19.386;2023-02-01T11:55:10;4.60;99.90
21459;DHT22;10891;49.350;19.386;2023-02-01T11:57:48;4.60;99.90
21459;DHT22;10891;49.350;19.386;2023-02-01T12:00:31;4.50;99.90
21459;DHT22;10891;49.350;19.386;2023-02-01T12:03:29;4.40;99.90
21459;DHT22;10891;49.350;19.386;2023-02-01T12:06:05;4.70;1.00
21459;DHT22;10891;49.350;19.386;2023-02-01T12:11:44;4.50;99.90
21459;DHT22;10891;49.350;19.386;2023-02-01T12:14:24;4.30;99.90
21459;DHT22;10891;49.350;19.386;2023-02-01T12:17:02;4.00;99.90
21459;DHT22;10891;49.350;19.386;2023-02-01T12:19:48;3.80;1.00
21459;DHT22;10891;49.350;19.386;2023-02-01T12:22:26;3.60;1.00
21459;DHT22;10891;49.350;19.386;2023-02-01T12:25:11;3.40;1.00
21459;DHT22;10891;49.350;19.386;2023-02-01T12:31:13;3.10;1.00
21459;DHT22;10891;49.350;19.386;2023-02-01T12:33:54;3.10;1.00
21459;DHT22;10891;49.350;19.386;2023-02-01T12:36:32;2.90;1.00
21459;DHT22;10891;49.350;19.386;2023-02-01T12:39:09;2.60;1.00
21459;DHT22;10891;49.350;19.386;2023-02-01T12:41:49;2.40;99.90
21459;DHT22;10891;49.350;19.386;2023-02-01T12:44:34;2.30;1.00
21459;DHT22;10891;49.350;19.386;2023-02-01T12:47:07;2.20;1.00
21459;DHT22;10891;49.350;19.386;2023-02-01T12:49:47;2.10;99.90
21459;DHT22;10891;49.350;19.386;2023-02-01T12:52:21;2.20;1.00
21459;DHT22;10891;49.350;19.386;2023-02-01T12:54:55;2.20;1.00
21459;DHT22;10891;49.350;19.386;2023-02-01T12:57:28;2.40;1.00
21459;DHT22;10891;49.350;19.386;2023-02-01T13:00:03;2.40;1.00
21459;DHT22;10891;49.350;19.386;2023-02-01T13:02:37;2.40;99.90
21459;DHT22;10891;49.350;19.386;2023-02-01T13:05:15;2.50;99.90
21459;DHT22;10891;49.350;19.386;2023-02-01T13:07:47;2.60;1.00
21459;DHT22;10891;49.350;19.386;2023-02-01T13:10:18;2.80;99.90
21459;DHT22;10891;49.350;19.386;2023-02-01T13:12:53;2.80;99.90
21459;DHT22;10891;49.350;19.386;2023-02-01T13:15:25;3.00;1.00
21459;DHT22;10891;49.350;19.386;2023-02-01T13:17:54;3.20;1.00
21459;DHT22;10891;49.350;19.386;2023-02-01T13:20:28;3.70;1.00
21459;DHT22;10891;49.350;19.386;2023-02-01T13:23:00;3.70;1.00
21459;DHT22;10891;49.350;19.386;2023-02-01T13:25:33;3.50;1.00
21459;DHT22;10891;49.350;19.386;2023-02-01T13:28:06;3.60;1.00
21459;DHT22;10891;49.350;19.386;2023-02-01T13:30:54;3.50;1.00
21459;DHT22;10891;49.350;19.386;2023-02-01T13:33:40;3.30;1.00
21459;DHT22;10891;49.350;19.386;2023-02-01T13:36:25;3.00;1.00
21459;DHT22;10891;49.350;19.386;2023-02-01T13:42:03;2.80;1.00
21459;DHT22;10891;49.350;19.386;2023-02-01T13:44:37;2.60;1.00
21459;DHT22;10891;49.350;19.386;2023-02-01T13:47:19;2.40;1.00
21459;DHT22;10891;49.350;19.386;2023-02-01T13:49:48;2.10;38.70
21459;DHT22;10891;49.350;19.386;2023-02-01T13:52:36;1.90;1.00
21459;DHT22;10891;49.350;19.386;2023-02-01T13:55:16;1.90;99.90
21459;DHT22;10891;49.350;19.386;2023-02-01T13:57:51;1.80;99.90
21459;DHT22;10891;49.350;19.386;2023-02-01T14:00:28;1.70;99.90
21459;DHT22;10891;49.350;19.386;2023-02-01T14:03:10;1.70;1.00
21459;DHT22;10891;49.350;19.386;2023-02-01T14:06:16;1.70;1.00
21459;DHT22;10891;49.350;19.386;2023-02-01T14:08:45;1.70;1.00
21459;DHT22;10891;49.350;19.386;2023-02-01T14:11:39;1.70;1.00
21459;DHT22;10891;49.350;19.386;2023-02-01T14:17:35;1.40;1.00
21459;DHT22;10891;49.350;19.386;2023-02-01T14:23:12;1.20;1.00
21459;DHT22;10891;49.350;19.386;2023-02-01T14:25:39;1.10;1.00
21459;DHT22;10891;49.350;19.386;2023-02-01T14:28:11;1.00;99.90
21459;DHT22;10891;49.350;19.386;2023-02-01T14:30:41;1.00;99.90
21459;DHT22;10891;49.350;19.386;2023-02-01T14:33:18;0.90;99.90
21459;DHT22;10891;49.350;19.386;2023-02-01T14:36:03;1.00;1.00
21459;DHT22;10891;49.350;19.386;2023-02-01T14:38:31;1.10;99.90
21459;DHT22;10891;49.350;19.386;2023-02-01T14:41:26;1.30;99.90
21459;DHT22;10891;49.350;19.386;2023-02-01T14:50:17;1.30;1.00
21459;DHT22;10891;49.350;19.386;2023-02-01T14:52:49;1.30;99.90
21459;DHT22;10891;49.350;19.386;2023-02-01T14:55:20;1.30;1.00
21459;DHT22;10891;49.350;19.386;2023-02-01T14:57:50;1.30;99.90
21459;DHT22;10891;49.350;19.386;2023-02-01T15:00:22;1.30;99.90
21459;DHT22;10891;49.350;19.386;2023-02-01T15:02:51;1.30;99.90
21459;DHT22;10891;49.350;19.386;2023-02-01T15:05:29;1.10;99.90
21459;DHT22;10891;49.350;19.386;2023-02-01T15:08:04;1.10;1.00
21459;DHT22;10891;49.350;19.386;2023-02-01T15:10:39;0.90;99.90
21459;DHT22;10891;49.350;19.386;2023-02-01T15:13:19;0.80;99.90
21459;DHT22;10891;49.350;19.386;2023-02-01T15:16:03;0.70;99.90
21459;DHT22;10891;49.350;19.386;2023-02-01T15:18:31;0.70;1.00
21459;DHT22;10891;49.350;19.386;2023-02-01T15:21:01;0.60;1.00
21459;DHT22;10891;49.350;19.386;2023-02-01T15:23:29;0.50;99.90
21459;DHT22;10891;49.350;19.386;2023-02-01T15:25:56;0.50;1.00
21459;DHT22;10891;49.350;19.386;2023-02-01T15:28:25;0.60;99.90
21459;DHT22;10891;49.350;19.386;2023-02-01T15:30:55;0.60;1.00
21459;DHT22;10891;49.350;19.386;2023-02-01T15:33:22;0.60;1.00
21459;DHT22;10891;49.350;19.386;2023-02-01T15:35:51;0.60;1.00
21459;DHT22;10891;49.350;19.386;2023-02-01T15:38:30;0.60;99.90
21459;DHT22;10891;49.350;19.386;2023-02-01T15:41:00;0.70;99.90
21459;DHT22;10891;49.350;19.386;2023-02-01T15:43:29;0.70;1.00
21459;DHT22;10891;49.350;19.386;2023-02-01T15:45:59;0.80;1.00
21459;DHT22;10891;49.350;19.386;2023-02-01T15:48:31;0.70;99.90
21459;DHT22;10891;49.350;19.386;2023-02-01T15:50:59;0.80;99.90
21459;DHT22;10891;49.350;19.386;2023-02-01T15:53:28;0.80;1.00
21459;DHT22;10891;49.350;19.386;2023-02-01T15:55:59;0.90;1.00
21459;DHT22;10891;49.350;19.386;2023-02-01T15:58:27;0.90;1.00
21459;DHT22;10891;49.350;19.386;2023-02-01T16:00:59;1.00;1.00
21459;DHT22;10891;49.350;19.386;2023-02-01T16:03:34;1.00;1.00
21459;DHT22;10891;49.350;19.386;2023-02-01T16:06:05;1.00;1.00
21459;DHT22;10891;49.350;19.386;2023-02-01T16:08:34;1.00;1.00
21459;DHT22;10891;49.350;19.386;2023-02-01T16:11:20;1.10;1.00
21459;DHT22;10891;49.350;19.386;2023-02-01T16:13:48;1.00;99.90
21459;DHT22;10891;49.350;19.386;2023-02-01T16:16:15;1.00;1.00
21459;DHT22;10891;49.350;19.386;2023-02-01T16:18:43;1.10;1.00
21459;DHT22;10891;49.350;19.386;2023-02-01T16:21:10;1.10;1.00
21459;DHT22;10891;49.350;19.386;2023-02-01T16:23:38;1.10;14.10
21459;DHT22;10891;49.350;19.386;2023-02-01T16:26:05;1.20;1.00
21459;DHT22;10891;49.350;19.386;2023-02-01T16:28:33;1.20;99.90
21459;DHT22;10891;49.350;19.386;2023-02-01T16:31:00;1.20;1.00
21459;DHT22;10891;49.350;19.386;2023-02-01T16:33:27;1.20;1.00
21459;DHT22;10891;49.350;19.386;2023-02-01T16:35:56;1.20;10.80